Flight Track Log - Related Links

Times and Time Zones

All times are in EDT time to prevent confusion due to time zone crossing. See the PDT4155 flight status page for this flight to view local times or setup timezone preferences in your user account.

Time Position Orientation Groundspeed Altitude Reporting Facility
EDT Latitude Longitude Course Direction KTS MPH feet Rate Location/Type
Sat 07:16:00 AM 42.0348 -75.9228 180° South  Level Estimated
Sat 07:17:00 AM 41.9753 -75.9250 182° South  Level FlightAware Approximate
Sat 07:18:00 AM 41.9158 -75.9272 182° South  Level FlightAware Approximate
Sat 07:19:00 AM 41.8581 -75.9072 154° Southeast  Level Estimated
Sat 07:20:00 AM 41.8004 -75.8873 160° South  Level Estimated
Sat 07:21:00 AM 41.7428 -75.8674 159° South  Level Estimated
Sat 07:22:00 AM 41.6845 -75.8512 168° South  Level FlightAware Approximate
Sat 07:23:00 AM 41.6261 -75.8350 168° South  Level FlightAware Approximate
Sat 07:24:00 AM 41.5685 -75.8149 153° Southeast  Level Estimated
Sat 07:25:00 AM 41.5109 -75.7949 161° South  Level Estimated
Sat 07:26:00 AM 41.4546 -75.7691 161° South  Level FlightAware Approximate
Sat 07:27:00 AM 41.3982 -75.7433 161° South  Level FlightAware Approximate
Sat 07:28:00 AM 41.3405 -75.7239 162° South  Level Estimated
Sat 07:29:00 AM 41.2842 -75.6978 161° South  Level FlightAware Approximate
Sat 07:30:00 AM 41.2280 -75.6718 161° South  Level FlightAware Approximate
Sat 07:31:00 AM 41.1717 -75.6458 161° South  Level FlightAware Approximate
Sat 07:32:00 AM 41.1155 -75.6198 161° South  Level FlightAware Approximate
Sat 07:33:00 AM 41.0575 -75.6018 163° South  Level Estimated
Sat 07:34:00 AM 41.0011 -75.5766 161° South  Level FlightAware Approximate
Sat 07:35:00 AM 40.9447 -75.5514 161° South  Level FlightAware Approximate
Sat 07:36:00 AM 40.8882 -75.5262 161° South  Level FlightAware Approximate
Sat 07:37:00 AM 40.8318 -75.5011 161° South  Level FlightAware Approximate
Sat 07:38:00 AM 40.7735 -75.4850 190° South  Level Estimated
Sat 07:39:00 AM 40.7140 -75.4883 182° South  Level FlightAware Approximate
Sat 07:40:00 AM 40.6545 -75.4916 182° South  Level FlightAware Approximate
Sat 07:41:00 AM 40.5966 -75.4728 187° South  Level Estimated
Sat 07:41:43 AM 40.5667 -75.6333 143° Southeast 256 295 7,300  Level Philadelphia TRACON
Sat 07:42:00 AM 40.5379 -75.4859 190° South  Level FlightAware Approximate
Sat 07:42:13 AM 40.5333 -75.6167 159° South 266 306 6,900  Level Philadelphia TRACON
Sat 07:43:00 AM 40.4806 -75.4647 190° South  Level Estimated
Sat 07:43:19 AM 40.4500 -75.6000 171° South 269 310 6,000  Level Philadelphia TRACON
Sat 07:44:00 AM 40.4233 -75.4859 196° South  Level FlightAware Approximate
Sat 07:44:19 AM 40.3667 -75.5833 171° South 267 307 5,200  Level Philadelphia TRACON
Sat 07:45:00 AM 40.3660 -75.5071 196° South  Level FlightAware Approximate
Sat 07:45:19 AM 40.3000 -75.5667 169° South 255 293 5,000  Level Philadelphia TRACON
Sat 07:46:00 AM 40.3110 -75.4773 143° Southeast  Level Estimated
Sat 07:46:19 AM 40.2500 -75.5333 153° Southeast 248 285 4,900  Level Philadelphia TRACON
Sat 07:47:14 AM 40.2500 -75.4500 90° East 253 291 4,300 -470 Descending Philadelphia TRACON
Sat 07:48:14 AM 40.2667 -75.3667 75° East 255 293 4,000 -286 Descending Philadelphia TRACON
Sat 07:49:20 AM 40.1833 -75.3333 163° South 234 269 3,700 -318 Descending Philadelphia TRACON
Sat 07:50:26 AM 40.1167 -75.3500 191° South 244 281 3,300 -429 Descending Philadelphia TRACON
Sat 07:51:26 AM 40.0500 -75.3167 159° South 243 280 2,800 -500 Descending Philadelphia TRACON
Sat 07:52:26 AM 40.0000 -75.3000 166° South 182 209 2,300 -762 Descending Philadelphia TRACON
Sat 07:53:32 AM 39.9500 -75.2667 153° Southeast 163 188 1,200 -810 Descending Philadelphia TRACON
Sat 07:54:32 AM 39.9167 -75.2500 159° South 121 139 600 -600 Descending Philadelphia TRACON

Login

Don't have an account? Register now (free) for customized features, flight alerts, and more!